createdAt,value
2018-09-04T00:00:23.447Z,19.40
2018-09-04T00:02:51.777Z,19.63
2018-09-04T00:05:19.349Z,19.47
2018-09-04T00:07:46.947Z,24.90
2018-09-04T00:10:15.273Z,23.90
2018-09-04T00:12:42.835Z,24.63
2018-09-04T00:15:10.798Z,25.20
2018-09-04T00:17:38.360Z,26.13
2018-09-04T00:20:06.076Z,22.43
2018-09-04T00:22:34.439Z,29.40
2018-09-04T00:25:01.999Z,26.97
2018-09-04T00:27:29.554Z,17.73
2018-09-04T00:29:57.145Z,19.90
2018-09-04T00:32:25.482Z,22.48
2018-09-04T00:34:53.044Z,22.07
2018-09-04T00:37:20.670Z,22.77
2018-09-04T00:39:48.226Z,19.80
2018-09-04T00:42:15.796Z,22.13
2018-09-04T00:44:43.393Z,24.70
2018-09-04T00:47:10.956Z,18.07
2018-09-04T00:49:38.516Z,20.37
2018-09-04T00:52:06.124Z,23.53
2018-09-04T00:54:33.675Z,23.97
2018-09-04T00:57:01.245Z,23.47
2018-09-04T00:59:28.857Z,22.77
2018-09-04T01:01:56.414Z,26.57
2018-09-04T01:04:24.003Z,27.87
2018-09-04T01:06:51.599Z,25.17
2018-09-04T01:09:19.165Z,21.03
2018-09-04T01:11:46.733Z,19.93
2018-09-04T01:14:14.347Z,25.23
2018-09-04T01:16:42.694Z,24.02
2018-09-04T01:19:10.254Z,23.10
2018-09-04T01:21:37.873Z,20.33
2018-09-04T01:24:05.435Z,28.23
2018-09-04T01:26:33.007Z,23.60
2018-09-04T01:29:00.606Z,24.07
2018-09-04T01:31:28.184Z,31.60
2018-09-04T01:33:55.750Z,25.40
2018-09-04T01:36:24.115Z,28.37
2018-09-04T01:38:51.687Z,31.77
2018-09-04T01:41:20.014Z,25.73
2018-09-04T01:43:47.939Z,23.97
2018-09-04T01:46:16.270Z,25.67
2018-09-04T01:48:43.844Z,23.67
2018-09-04T01:51:11.442Z,27.53
2018-09-04T01:53:39.814Z,25.90
2018-09-04T01:56:08.138Z,28.63
2018-09-04T01:58:35.735Z,25.70
2018-09-04T02:01:03.316Z,30.47
2018-09-04T02:03:31.648Z,28.27
2018-09-04T02:06:00.235Z,26.43
2018-09-04T02:08:27.810Z,28.77
2018-09-04T02:10:55.369Z,23.30
2018-09-04T02:13:22.962Z,26.02
2018-09-04T02:15:51.290Z,28.30
2018-09-04T02:18:18.854Z,26.43
2018-09-04T02:20:46.442Z,25.17
2018-09-04T02:23:14.004Z,27.20
2018-09-04T02:25:41.566Z,28.23
2018-09-04T02:28:09.705Z,28.87
2018-09-04T02:30:37.277Z,25.20
2018-09-04T02:33:04.890Z,26.50
2018-09-04T02:35:32.432Z,24.63
2018-09-04T02:38:00.763Z,26.07
2018-09-04T02:40:28.326Z,26.07
2018-09-04T02:42:55.921Z,25.33
2018-09-04T02:45:23.484Z,30.93
2018-09-04T02:47:51.047Z,30.63
2018-09-04T02:50:18.661Z,26.70
2018-09-04T02:52:46.220Z,28.17
2018-09-04T02:55:14.025Z,32.03
2018-09-04T02:57:41.625Z,36.43
2018-09-04T03:00:09.196Z,39.90
2018-09-04T03:02:36.760Z,33.50
2018-09-04T03:05:04.350Z,31.00
2018-09-04T03:07:31.910Z,31.27
2018-09-04T03:09:59.481Z,30.60
2018-09-04T03:12:27.506Z,29.17
2018-09-04T03:14:55.070Z,31.33
2018-09-04T03:17:22.634Z,30.88
2018-09-04T03:19:50.246Z,28.93
2018-09-04T03:22:17.805Z,32.13
2018-09-04T03:24:45.369Z,32.13
2018-09-04T03:27:12.962Z,28.50
2018-09-04T03:29:40.542Z,28.60
2018-09-04T03:32:08.091Z,31.20
2018-09-04T03:34:35.719Z,28.30
2018-09-04T03:37:03.278Z,31.57
2018-09-04T03:39:30.840Z,29.20
2018-09-04T03:41:58.436Z,28.47
2018-09-04T03:44:26.124Z,29.53
2018-09-04T03:46:53.561Z,28.17
2018-09-04T03:49:21.205Z,27.53
2018-09-04T03:51:48.778Z,26.27
2018-09-04T03:54:16.347Z,26.97
2018-09-04T03:56:43.963Z,30.23
2018-09-04T03:59:11.531Z,29.47
2018-09-04T04:01:39.094Z,39.00
2018-09-04T04:04:07.475Z,36.40
2018-09-04T04:06:35.029Z,41.95
2018-09-04T04:09:02.594Z,35.10
2018-09-04T04:11:30.968Z,34.43
2018-09-04T04:13:59.289Z,36.93
2018-09-04T04:16:26.852Z,33.30
2018-09-04T04:18:55.447Z,35.20
2018-09-04T04:21:23.013Z,34.93
2018-09-04T04:23:50.595Z,32.83
2018-09-04T04:26:18.205Z,36.00
2018-09-04T04:28:45.803Z,33.80
2018-09-04T04:31:13.361Z,36.07
2018-09-04T04:33:40.966Z,41.30
2018-09-04T04:36:09.302Z,33.80
2018-09-04T04:38:36.880Z,37.40
2018-09-04T04:41:04.483Z,36.00
2018-09-04T04:43:32.044Z,41.25
2018-09-04T04:45:59.645Z,40.50
2018-09-04T04:48:27.242Z,40.47
2018-09-04T04:50:55.571Z,31.73
2018-09-04T04:53:23.131Z,33.47
2018-09-04T04:55:50.738Z,29.93
2018-09-04T04:58:19.071Z,30.40
2018-09-04T05:00:46.632Z,30.47
2018-09-04T05:03:14.759Z,29.90
2018-09-04T05:05:43.088Z,31.03
2018-09-04T05:08:10.652Z,31.37
2018-09-04T05:10:38.628Z,29.83
2018-09-04T05:13:06.218Z,33.20
2018-09-04T05:15:33.778Z,34.03
2018-09-04T05:18:01.929Z,33.20
2018-09-04T05:20:29.503Z,36.50
2018-09-04T05:22:57.074Z,35.30
2018-09-04T05:25:25.543Z,39.33
2018-09-04T05:27:53.105Z,31.37
2018-09-04T05:30:20.667Z,34.10
2018-09-04T05:32:48.278Z,33.43
2018-09-04T05:35:15.889Z,34.93
2018-09-04T05:37:43.462Z,31.57
2018-09-04T05:40:12.194Z,36.13
2018-09-04T05:42:39.756Z,34.63
2018-09-04T05:45:07.325Z,34.80
2018-09-04T05:47:34.925Z,36.20
2018-09-04T05:50:02.489Z,39.30
2018-09-04T05:52:30.822Z,36.40
2018-09-04T05:54:58.440Z,34.93
2018-09-04T05:57:26.818Z,34.53
2018-09-04T05:59:54.330Z,37.87
2018-09-04T06:02:22.889Z,37.93
2018-09-04T06:04:50.452Z,35.47
2018-09-04T06:07:18.023Z,35.20
2018-09-04T06:09:45.677Z,36.93
2018-09-04T06:12:13.292Z,37.27
2018-09-04T06:20:00.139Z,41.83
2018-09-04T06:22:27.654Z,37.93
2018-09-04T06:24:55.216Z,39.33
2018-09-04T06:27:22.836Z,41.27
2018-09-04T06:29:50.403Z,40.97
2018-09-04T06:32:17.970Z,42.83
2018-09-04T06:34:45.963Z,43.27
2018-09-04T06:37:13.529Z,43.57
2018-09-04T06:39:41.690Z,47.60
2018-09-04T06:42:09.351Z,42.70
2018-09-04T06:44:36.919Z,45.67
2018-09-04T06:47:04.485Z,46.53
2018-09-04T06:49:32.099Z,45.80
2018-09-04T06:52:00.007Z,48.23
2018-09-04T06:54:27.925Z,45.37
2018-09-04T06:56:55.969Z,49.80
2018-09-04T06:59:23.532Z,49.57
2018-09-04T07:01:51.102Z,48.90
2018-09-04T07:04:18.716Z,52.33
2018-09-04T07:06:46.307Z,51.30
2018-09-04T07:09:13.917Z,55.60
2018-09-04T07:11:42.041Z,48.80
2018-09-04T07:14:09.614Z,52.03
2018-09-04T07:16:37.194Z,57.23
2018-09-04T07:19:05.649Z,60.33
2018-09-04T07:21:33.225Z,58.30
2018-09-04T07:24:00.793Z,55.10
2018-09-04T07:26:28.717Z,53.07
2018-09-04T07:28:56.301Z,56.93
2018-09-04T07:31:23.871Z,59.43
2018-09-04T07:33:51.533Z,51.13
2018-09-04T07:36:19.170Z,58.45
2018-09-04T07:38:46.809Z,54.63
2018-09-04T07:41:14.603Z,50.03
2018-09-04T07:43:42.230Z,55.17
2018-09-04T07:46:09.799Z,45.73
2018-09-04T07:48:37.425Z,46.23
2018-09-04T07:51:05.364Z,47.60
2018-09-04T07:53:32.937Z,48.13
2018-09-04T07:56:00.555Z,54.37
2018-09-04T07:58:28.132Z,66.00
2018-09-04T08:00:55.740Z,52.13
2018-09-04T08:03:24.410Z,51.80
2018-09-04T08:05:51.979Z,56.67
2018-09-04T08:08:19.546Z,58.10
2018-09-04T08:10:47.188Z,56.63
2018-09-04T08:13:14.764Z,58.60
2018-09-04T08:15:42.344Z,47.47
2018-09-04T08:18:13.229Z,49.87
2018-09-04T08:20:40.857Z,54.30
2018-09-04T08:23:08.373Z,56.63
2018-09-04T08:25:35.981Z,58.70
2018-09-04T08:28:04.315Z,62.67
2018-09-04T08:30:31.879Z,59.57
2018-09-04T08:32:59.523Z,53.80
2018-09-04T08:35:27.066Z,58.27
2018-09-04T08:37:54.619Z,60.03
2018-09-04T08:40:22.736Z,57.10
2018-09-04T08:42:50.301Z,58.73
2018-09-04T08:45:17.871Z,65.22
2018-09-04T08:47:45.549Z,55.27
2018-09-04T08:50:13.056Z,54.60
2018-09-04T08:52:40.893Z,62.45
2018-09-04T08:55:09.311Z,59.70
2018-09-04T08:57:37.597Z,58.27
2018-09-04T09:00:05.167Z,57.93
2018-09-04T09:02:33.953Z,57.00
2018-09-04T09:05:01.524Z,59.97
2018-09-04T09:07:29.093Z,57.40
2018-09-04T09:09:57.271Z,56.90
2018-09-04T09:12:24.838Z,62.53
2018-09-04T09:14:52.401Z,66.53
2018-09-04T09:17:20.130Z,63.15
2018-09-04T09:19:47.688Z,64.20
2018-09-04T09:22:15.260Z,57.43
2018-09-04T09:24:43.292Z,57.80
2018-09-04T09:27:10.823Z,54.83
2018-09-04T09:29:38.400Z,55.40
2018-09-04T09:32:05.998Z,61.87
2018-09-04T09:34:33.570Z,63.37
2018-09-04T09:37:01.217Z,58.17
2018-09-04T09:39:28.804Z,58.70
2018-09-04T09:41:56.389Z,78.30
2018-09-04T09:44:23.962Z,69.13
2018-09-04T09:46:51.586Z,65.90
2018-09-04T09:49:19.156Z,69.13
2018-09-04T09:51:46.733Z,74.87
2018-09-04T09:54:14.359Z,60.70
2018-09-04T09:56:41.954Z,62.28
2018-09-04T09:59:09.496Z,59.00
2018-09-04T10:01:37.534Z,63.07
2018-09-04T10:04:05.073Z,51.53
2018-09-04T10:06:32.608Z,55.67
2018-09-04T10:09:00.227Z,56.20
2018-09-04T10:11:27.801Z,53.43
2018-09-04T10:13:55.366Z,49.87
2018-09-04T10:16:23.051Z,54.83
2018-09-04T10:18:50.854Z,48.90
2018-09-04T10:21:19.198Z,45.13
2018-09-04T10:23:46.823Z,43.93
2018-09-04T10:26:14.713Z,44.83
2018-09-04T10:28:42.281Z,52.43
2018-09-04T10:31:09.938Z,50.30
2018-09-04T10:33:37.522Z,49.63
2018-09-04T10:36:05.139Z,44.90
2018-09-04T10:38:33.147Z,47.42
2018-09-04T10:41:00.712Z,43.70
2018-09-04T10:43:28.283Z,42.43
2018-09-04T10:45:56.582Z,43.67
2018-09-04T10:48:24.919Z,39.37
2018-09-04T10:50:52.482Z,42.07
2018-09-04T10:53:20.960Z,36.70
2018-09-04T10:55:48.576Z,38.80
2018-09-04T10:58:16.103Z,34.17
2018-09-04T11:00:43.770Z,34.87
2018-09-04T11:03:11.343Z,35.00
2018-09-04T11:05:38.904Z,35.63
2018-09-04T11:08:07.673Z,36.67
2018-09-04T11:10:35.240Z,36.83
2018-09-04T11:13:02.820Z,54.30
2018-09-04T11:15:32.340Z,35.95
2018-09-04T11:18:00.679Z,36.40
2018-09-04T11:20:28.245Z,35.43
2018-09-04T11:22:55.863Z,30.40
2018-09-04T11:25:23.431Z,34.63
2018-09-04T11:27:50.985Z,37.70
2018-09-04T11:30:19.081Z,34.83
2018-09-04T11:32:46.661Z,35.37
2018-09-04T11:35:14.237Z,31.60
2018-09-04T11:37:41.880Z,26.97
2018-09-04T11:40:09.447Z,37.53
2018-09-04T11:42:37.012Z,29.40
2018-09-04T11:45:05.038Z,24.90
2018-09-04T11:47:32.607Z,30.00
2018-09-04T11:50:00.180Z,22.53
2018-09-04T11:52:27.829Z,21.50
2018-09-04T11:54:55.364Z,20.23
2018-09-04T11:57:23.697Z,22.50
2018-09-04T11:59:51.991Z,20.50
2018-09-04T12:02:19.558Z,25.03
2018-09-04T12:04:47.126Z,25.83
2018-09-04T12:07:14.782Z,21.03
2018-09-04T12:09:42.357Z,22.13
2018-09-04T12:12:09.935Z,19.33
2018-09-04T12:14:37.957Z,20.80
2018-09-04T12:17:05.526Z,17.93
2018-09-04T12:19:33.088Z,18.43
2018-09-04T12:22:01.565Z,20.00
2018-09-04T12:24:29.141Z,18.67
2018-09-04T12:26:56.711Z,16.02
2018-09-04T12:29:24.367Z,14.60
2018-09-04T12:31:51.935Z,20.43
2018-09-04T12:34:19.498Z,16.60
2018-09-04T12:36:47.879Z,16.90
2018-09-04T12:39:15.441Z,17.97
2018-09-04T12:41:43.775Z,17.40
2018-09-04T12:44:11.457Z,19.17
2018-09-04T12:46:39.020Z,20.50
2018-09-04T12:49:06.624Z,13.73
2018-09-04T12:51:34.213Z,17.07
2018-09-04T12:54:01.787Z,19.58
2018-09-04T12:56:29.358Z,18.70
2018-09-04T12:58:56.982Z,20.23
2018-09-04T13:01:24.550Z,19.00
2018-09-04T13:03:52.114Z,18.33
2018-09-04T13:06:20.326Z,15.33
2018-09-04T13:08:47.897Z,15.87
2018-09-04T13:11:15.469Z,13.43
2018-09-04T13:13:43.082Z,13.48
2018-09-04T13:16:10.699Z,15.33
2018-09-04T13:18:38.227Z,12.53
2018-09-04T13:21:06.634Z,10.90
2018-09-04T13:23:34.221Z,11.23
2018-09-04T13:26:01.781Z,9.93
2018-09-04T13:28:29.432Z,12.93
2018-09-04T13:30:57.769Z,11.53
2018-09-04T13:33:25.333Z,8.83
2018-09-04T13:35:53.374Z,9.67
2018-09-04T13:38:20.943Z,13.93
2018-09-04T13:40:48.506Z,13.83
2018-09-04T13:43:16.540Z,12.57
2018-09-04T13:45:44.104Z,12.43
2018-09-04T13:48:11.666Z,10.67
2018-09-04T13:50:40.533Z,55.50
2018-09-04T13:53:08.103Z,10.33
2018-09-04T13:55:35.673Z,12.43
2018-09-04T13:58:04.428Z,11.00
2018-09-04T14:00:31.992Z,11.00
2018-09-04T14:02:59.556Z,9.20
2018-09-04T14:05:27.203Z,10.07
2018-09-04T14:07:55.071Z,10.70
2018-09-04T14:10:22.645Z,12.07
2018-09-04T14:12:50.335Z,11.00
2018-09-04T14:15:17.899Z,12.77
2018-09-04T14:17:45.466Z,11.20
2018-09-04T14:20:13.852Z,13.43
2018-09-04T14:22:41.413Z,11.23
2018-09-04T14:25:08.969Z,10.93
2018-09-04T14:27:36.999Z,11.53
2018-09-04T14:30:17.491Z,16.00
2018-09-04T14:32:32.155Z,14.33
2018-09-04T14:35:01.434Z,8.87
2018-09-04T14:37:29.012Z,10.03
2018-09-04T14:39:56.569Z,11.57
2018-09-04T14:42:24.508Z,12.03
2018-09-04T14:44:52.345Z,7.87
2018-09-04T14:47:19.885Z,8.30
2018-09-04T14:49:47.521Z,9.63
2018-09-04T14:52:15.083Z,10.17
2018-09-04T14:54:42.653Z,10.50
2018-09-04T14:57:10.302Z,8.98
2018-09-04T14:59:37.870Z,10.20
2018-09-04T15:02:05.438Z,10.63
2018-09-04T15:04:33.422Z,10.00
2018-09-04T15:07:00.992Z,8.93
2018-09-04T15:09:29.337Z,6.73
2018-09-04T15:11:58.054Z,7.40
2018-09-04T15:14:25.601Z,8.93
2018-09-04T15:16:53.155Z,9.37
2018-09-04T15:19:20.765Z,7.97
2018-09-04T15:21:48.324Z,8.93
2018-09-04T15:24:15.882Z,7.40
2018-09-04T15:26:43.881Z,7.00
2018-09-04T15:29:11.442Z,6.87
2018-09-04T15:31:39.023Z,8.60
2018-09-04T15:34:06.958Z,8.03
2018-09-04T15:36:34.518Z,7.43
2018-09-04T15:39:02.084Z,7.00
2018-09-04T15:41:29.729Z,9.07
2018-09-04T15:43:57.289Z,9.33
2018-09-04T15:46:24.848Z,9.87
2018-09-04T15:48:52.861Z,9.63
2018-09-04T15:51:20.414Z,9.33
2018-09-04T15:53:47.974Z,9.40
2018-09-04T15:56:15.630Z,8.80
2018-09-04T15:58:43.190Z,8.33
2018-09-04T16:01:10.769Z,7.77
2018-09-04T16:03:39.250Z,8.93
2018-09-04T16:06:06.821Z,7.97
2018-09-04T16:08:34.385Z,7.60
2018-09-04T16:11:03.275Z,9.47
2018-09-04T16:13:30.837Z,10.50
2018-09-04T16:15:58.394Z,9.37
2018-09-04T16:18:26.447Z,9.30
2018-09-04T16:20:54.005Z,9.20
2018-09-04T16:23:21.567Z,9.33
2018-09-04T16:25:50.092Z,7.60
2018-09-04T16:28:17.649Z,7.40
2018-09-04T16:30:45.209Z,9.30
2018-09-04T16:33:12.849Z,9.37
2018-09-04T16:35:40.439Z,7.07
2018-09-04T16:38:07.996Z,7.60
2018-09-04T16:40:35.639Z,10.03
2018-09-04T16:43:03.208Z,9.30
2018-09-04T16:45:30.772Z,7.93
2018-09-04T16:47:58.940Z,8.07
2018-09-04T16:50:26.498Z,9.18
2018-09-04T16:52:54.066Z,8.10
2018-09-04T16:55:21.707Z,6.93
2018-09-04T16:57:49.261Z,7.17
2018-09-04T17:00:16.824Z,8.87
2018-09-04T17:02:44.469Z,7.87
2018-09-04T17:05:12.078Z,7.33
2018-09-04T17:07:39.583Z,9.03
2018-09-04T17:10:07.212Z,6.77
2018-09-04T17:12:34.991Z,6.63
2018-09-04T17:15:03.326Z,7.53
2018-09-04T17:17:31.829Z,8.67
2018-09-04T17:19:59.390Z,7.40
2018-09-04T17:22:26.953Z,9.07
2018-09-04T17:24:54.600Z,9.40
2018-09-04T17:27:22.124Z,9.17
2018-09-04T17:29:49.683Z,9.10
2018-09-04T17:32:24.377Z,10.13
2018-09-04T17:34:51.940Z,8.10
2018-09-04T17:37:19.502Z,10.93
2018-09-04T17:39:47.115Z,9.27
2018-09-04T17:42:14.687Z,8.03
2018-09-04T17:44:42.258Z,8.37
2018-09-04T17:47:09.872Z,6.97
2018-09-04T17:49:37.441Z,8.07
2018-09-04T17:52:05.041Z,8.93
2018-09-04T17:54:33.830Z,9.93
2018-09-04T17:57:01.399Z,8.30
2018-09-04T17:59:28.954Z,10.20
2018-09-04T18:01:56.591Z,9.17
2018-09-04T18:04:24.161Z,10.23
2018-09-04T18:06:51.715Z,9.30
2018-09-04T18:09:19.334Z,9.07
2018-09-04T18:11:47.665Z,8.77
2018-09-04T18:14:15.244Z,10.27
2018-09-04T18:16:43.293Z,9.63
2018-09-04T18:19:10.855Z,8.40
2018-09-04T18:21:38.423Z,9.27
2018-09-04T18:24:06.816Z,9.23
2018-09-04T18:26:34.377Z,9.10
2018-09-04T18:29:01.950Z,10.53
2018-09-04T18:31:30.120Z,11.40
2018-09-04T18:33:57.688Z,10.20
2018-09-04T18:36:25.251Z,10.07
2018-09-04T18:38:53.305Z,10.87
2018-09-04T18:41:20.872Z,12.33
2018-09-04T18:43:48.441Z,10.43
2018-09-04T18:46:16.073Z,9.83
2018-09-04T18:48:43.653Z,9.97
2018-09-04T18:51:11.219Z,10.70
2018-09-04T18:53:38.833Z,10.33
2018-09-04T18:56:06.411Z,10.53
2018-09-04T18:58:34.121Z,9.43
2018-09-04T19:01:01.741Z,9.70
2018-09-04T19:03:29.293Z,9.73
2018-09-04T19:05:56.857Z,11.13
2018-09-04T19:08:24.478Z,9.40
2018-09-04T19:10:52.038Z,10.97
2018-09-04T19:13:19.599Z,9.93
2018-09-04T19:15:47.205Z,10.47
2018-09-04T19:18:14.769Z,12.07
2018-09-04T19:20:42.334Z,12.10
2018-09-04T19:23:09.973Z,9.93
2018-09-04T19:25:37.557Z,12.23
2018-09-04T19:28:05.121Z,11.57
2018-09-04T19:30:33.202Z,12.37
2018-09-04T19:33:00.765Z,10.00
2018-09-04T19:35:28.332Z,11.13
2018-09-04T19:37:56.978Z,11.60
2018-09-04T19:40:24.549Z,10.87
2018-09-04T19:42:52.114Z,12.80
2018-09-04T19:45:19.742Z,11.50
2018-09-04T19:47:47.310Z,12.67
2018-09-04T19:50:14.864Z,11.37
2018-09-04T19:52:42.581Z,14.27
2018-09-04T19:55:10.164Z,14.23
2018-09-04T19:57:37.755Z,14.13
2018-09-04T20:00:07.048Z,14.73
2018-09-04T20:02:34.607Z,15.53
2018-09-04T20:05:02.169Z,16.60
2018-09-04T20:07:30.263Z,12.90
2018-09-04T20:09:57.774Z,11.43
2018-09-04T20:12:25.349Z,11.80
2018-09-04T20:14:53.067Z,12.70
2018-09-04T20:17:20.636Z,13.03
2018-09-04T20:19:48.221Z,10.60
2018-09-04T20:22:16.190Z,10.17
2018-09-04T20:24:44.805Z,12.60
2018-09-04T20:27:12.367Z,12.77
2018-09-04T20:29:40.006Z,12.13
2018-09-04T20:32:07.567Z,14.37
2018-09-04T20:34:35.131Z,13.90
2018-09-04T20:37:03.718Z,12.70
2018-09-04T20:39:31.282Z,11.87
2018-09-04T20:41:58.848Z,14.77
2018-09-04T20:44:27.022Z,12.77
2018-09-04T20:46:54.828Z,14.47
2018-09-04T20:49:23.161Z,12.60
2018-09-04T20:51:50.813Z,12.43
2018-09-04T20:54:18.446Z,12.90
2018-09-04T20:56:45.969Z,13.90
2018-09-04T20:59:50.737Z,13.07
2018-09-04T21:02:55.456Z,13.43
2018-09-04T21:06:00.958Z,12.77
2018-09-04T21:08:28.537Z,13.73
2018-09-04T21:10:56.115Z,12.23
2018-09-04T21:13:23.721Z,12.90
2018-09-04T21:15:51.640Z,14.87
2018-09-04T21:18:19.206Z,12.40
2018-09-04T21:20:48.068Z,12.40
2018-09-04T21:23:15.629Z,13.63
2018-09-04T21:25:43.193Z,11.90
2018-09-04T21:28:12.600Z,13.83
2018-09-04T21:30:38.376Z,13.30
2018-09-04T21:33:05.940Z,13.10
2018-09-04T21:35:33.587Z,14.10
2018-09-04T21:38:01.163Z,11.53
2018-09-04T21:40:28.727Z,12.67
2018-09-04T21:42:56.349Z,12.30
2018-09-04T21:45:23.922Z,13.50
2018-09-04T21:47:51.561Z,14.48
2018-09-04T21:50:19.157Z,12.95
2018-09-04T21:52:47.496Z,11.73
2018-09-04T21:55:15.055Z,13.27
2018-09-04T21:57:42.668Z,13.47
2018-09-04T22:00:10.987Z,16.37
2018-09-04T22:02:38.551Z,13.73
2018-09-04T22:05:06.202Z,13.60
2018-09-04T22:07:33.768Z,15.03
2018-09-04T22:10:01.397Z,11.27
2018-09-04T22:12:30.217Z,14.63
2018-09-04T22:14:57.783Z,15.33
2018-09-04T22:17:25.352Z,13.70
2018-09-04T22:19:53.277Z,11.93
2018-09-04T22:22:20.839Z,16.17
2018-09-04T22:24:48.398Z,13.40
2018-09-04T22:27:16.019Z,13.83
2018-09-04T22:29:43.584Z,13.60
2018-09-04T22:32:11.147Z,11.80
2018-09-04T22:34:38.760Z,12.50
2018-09-04T22:37:06.330Z,13.47
2018-09-04T22:39:33.894Z,14.63
2018-09-04T22:42:02.089Z,12.63
2018-09-04T22:44:29.655Z,14.37
2018-09-04T22:46:57.236Z,16.23
2018-09-04T22:49:24.829Z,15.60
2018-09-04T22:51:52.398Z,12.90
2018-09-04T22:54:19.974Z,14.27
2018-09-04T22:56:47.573Z,14.20
2018-09-04T22:59:15.137Z,12.53
2018-09-04T23:01:42.703Z,17.35
2018-09-04T23:04:10.321Z,16.43
2018-09-04T23:06:37.889Z,13.47
2018-09-04T23:09:05.459Z,12.90
2018-09-04T23:11:33.067Z,12.93
2018-09-04T23:14:00.630Z,11.53
2018-09-04T23:16:28.190Z,11.13
2018-09-04T23:18:55.787Z,15.63
2018-09-04T23:21:23.354Z,13.80
2018-09-04T23:23:50.923Z,14.63
2018-09-04T23:26:18.539Z,20.03
2018-09-04T23:28:46.102Z,15.73
2018-09-04T23:31:14.437Z,18.67
2018-09-04T23:33:42.328Z,17.80
2018-09-04T23:36:09.904Z,21.10
2018-09-04T23:38:37.470Z,17.73
2018-09-04T23:41:05.068Z,16.40
2018-09-04T23:43:32.638Z,17.57
2018-09-04T23:46:00.610Z,14.80
2018-09-04T23:48:28.889Z,19.00
2018-09-04T23:50:56.457Z,16.20
2018-09-04T23:53:24.164Z,18.43
2018-09-04T23:55:51.767Z,16.93
2018-09-04T23:58:19.342Z,16.80
